sensor_id;sensor_type;location;lat;lon;timestamp;temperature;humidity
17423;DHT22;8829;47.932;7.810;2023-11-18T00:01:43;4.00;99.90
17423;DHT22;8829;47.932;7.810;2023-11-18T00:04:10;4.00;99.90
17423;DHT22;8829;47.932;7.810;2023-11-18T00:06:41;4.00;99.90
17423;DHT22;8829;47.932;7.810;2023-11-18T00:09:09;4.10;99.90
17423;DHT22;8829;47.932;7.810;2023-11-18T00:11:40;4.20;99.90
17423;DHT22;8829;47.932;7.810;2023-11-18T00:14:07;4.00;99.90
17423;DHT22;8829;47.932;7.810;2023-11-18T00:16:35;4.10;99.90
17423;DHT22;8829;47.932;7.810;2023-11-18T00:19:02;4.10;99.90
17423;DHT22;8829;47.932;7.810;2023-11-18T00:21:30;4.10;99.90
17423;DHT22;8829;47.932;7.810;2023-11-18T00:23:57;4.20;99.90
17423;DHT22;8829;47.932;7.810;2023-11-18T00:26:24;4.10;99.90
17423;DHT22;8829;47.932;7.810;2023-11-18T00:28:52;4.10;99.90
17423;DHT22;8829;47.932;7.810;2023-11-18T00:31:19;4.20;99.90
17423;DHT22;8829;47.932;7.810;2023-11-18T00:33:46;4.00;99.90
17423;DHT22;8829;47.932;7.810;2023-11-18T00:36:12;4.00;99.90
17423;DHT22;8829;47.932;7.810;2023-11-18T00:38:39;4.00;99.90
17423;DHT22;8829;47.932;7.810;2023-11-18T00:41:06;3.90;99.90
17423;DHT22;8829;47.932;7.810;2023-11-18T00:43:33;3.90;99.90
17423;DHT22;8829;47.932;7.810;2023-11-18T00:46:01;3.90;99.90
17423;DHT22;8829;47.932;7.810;2023-11-18T00:48:29;3.90;99.90
17423;DHT22;8829;47.932;7.810;2023-11-18T00:50:56;3.70;99.90
17423;DHT22;8829;47.932;7.810;2023-11-18T00:53:22;3.60;99.90
17423;DHT22;8829;47.932;7.810;2023-11-18T00:55:49;3.60;99.90
17423;DHT22;8829;47.932;7.810;2023-11-18T00:58:16;3.50;99.90
17423;DHT22;8829;47.932;7.810;2023-11-18T01:00:43;3.60;99.90
17423;DHT22;8829;47.932;7.810;2023-11-18T01:03:11;3.60;99.90
17423;DHT22;8829;47.932;7.810;2023-11-18T01:05:38;3.60;99.90
17423;DHT22;8829;47.932;7.810;2023-11-18T01:08:05;3.70;99.90
17423;DHT22;8829;47.932;7.810;2023-11-18T01:10:32;3.80;99.90
17423;DHT22;8829;47.932;7.810;2023-11-18T01:12:58;3.90;99.90
17423;DHT22;8829;47.932;7.810;2023-11-18T01:15:25;3.80;99.90
17423;DHT22;8829;47.932;7.810;2023-11-18T01:17:52;3.80;99.90
17423;DHT22;8829;47.932;7.810;2023-11-18T01:20:20;3.70;99.90
17423;DHT22;8829;47.932;7.810;2023-11-18T01:22:47;3.80;99.90
17423;DHT22;8829;47.932;7.810;2023-11-18T01:25:14;4.00;99.90
17423;DHT22;8829;47.932;7.810;2023-11-18T01:27:42;3.90;99.90
17423;DHT22;8829;47.932;7.810;2023-11-18T01:30:12;4.00;99.90
17423;DHT22;8829;47.932;7.810;2023-11-18T01:32:39;4.10;99.90
17423;DHT22;8829;47.932;7.810;2023-11-18T01:35:07;4.00;99.90
17423;DHT22;8829;47.932;7.810;2023-11-18T01:37:35;3.80;99.90
17423;DHT22;8829;47.932;7.810;2023-11-18T01:40:02;3.80;99.90
17423;DHT22;8829;47.932;7.810;2023-11-18T01:42:32;4.00;99.90
17423;DHT22;8829;47.932;7.810;2023-11-18T01:44:59;3.80;99.90
17423;DHT22;8829;47.932;7.810;2023-11-18T01:47:29;3.80;99.90
17423;DHT22;8829;47.932;7.810;2023-11-18T01:49:58;3.70;99.90
17423;DHT22;8829;47.932;7.810;2023-11-18T01:52:25;3.70;99.90
17423;DHT22;8829;47.932;7.810;2023-11-18T01:54:54;3.70;99.90
17423;DHT22;8829;47.932;7.810;2023-11-18T01:57:21;3.60;99.90
17423;DHT22;8829;47.932;7.810;2023-11-18T01:59:49;3.60;99.90
17423;DHT22;8829;47.932;7.810;2023-11-18T02:02:15;3.70;99.90
17423;DHT22;8829;47.932;7.810;2023-11-18T02:04:42;3.80;99.90
17423;DHT22;8829;47.932;7.810;2023-11-18T02:07:10;4.00;99.90
17423;DHT22;8829;47.932;7.810;2023-11-18T02:09:41;3.90;99.90
17423;DHT22;8829;47.932;7.810;2023-11-18T02:12:18;4.00;99.90
17423;DHT22;8829;47.932;7.810;2023-11-18T02:14:48;4.10;99.90
17423;DHT22;8829;47.932;7.810;2023-11-18T02:17:19;4.00;99.90
17423;DHT22;8829;47.932;7.810;2023-11-18T02:19:48;4.00;99.90
17423;DHT22;8829;47.932;7.810;2023-11-18T02:22:15;4.00;99.90
17423;DHT22;8829;47.932;7.810;2023-11-18T02:24:42;3.90;99.90
17423;DHT22;8829;47.932;7.810;2023-11-18T02:27:10;3.80;99.90
17423;DHT22;8829;47.932;7.810;2023-11-18T02:29:40;3.80;99.90
17423;DHT22;8829;47.932;7.810;2023-11-18T02:32:15;3.90;99.90
17423;DHT22;8829;47.932;7.810;2023-11-18T02:34:51;3.90;99.90
17423;DHT22;8829;47.932;7.810;2023-11-18T02:37:21;3.80;99.90
17423;DHT22;8829;47.932;7.810;2023-11-18T02:39:53;3.80;99.90
17423;DHT22;8829;47.932;7.810;2023-11-18T02:42:26;3.80;99.90
17423;DHT22;8829;47.932;7.810;2023-11-18T02:44:53;3.80;99.90
17423;DHT22;8829;47.932;7.810;2023-11-18T02:47:25;3.80;99.90
17423;DHT22;8829;47.932;7.810;2023-11-18T02:49:54;3.60;99.90
17423;DHT22;8829;47.932;7.810;2023-11-18T02:52:21;3.60;99.90
17423;DHT22;8829;47.932;7.810;2023-11-18T02:54:48;3.50;99.90
17423;DHT22;8829;47.932;7.810;2023-11-18T02:57:14;3.50;99.90
17423;DHT22;8829;47.932;7.810;2023-11-18T02:59:42;3.40;99.90
17423;DHT22;8829;47.932;7.810;2023-11-18T03:02:12;3.40;99.90
17423;DHT22;8829;47.932;7.810;2023-11-18T03:04:40;3.50;99.90
17423;DHT22;8829;47.932;7.810;2023-11-18T03:07:09;3.50;99.90
17423;DHT22;8829;47.932;7.810;2023-11-18T03:09:36;3.50;99.90
17423;DHT22;8829;47.932;7.810;2023-11-18T03:12:05;3.60;99.90
17423;DHT22;8829;47.932;7.810;2023-11-18T03:14:33;3.60;99.90
17423;DHT22;8829;47.932;7.810;2023-11-18T03:17:01;3.50;99.90
17423;DHT22;8829;47.932;7.810;2023-11-18T03:19:32;3.30;99.90
17423;DHT22;8829;47.932;7.810;2023-11-18T03:21:59;3.30;99.90
17423;DHT22;8829;47.932;7.810;2023-11-18T03:24:25;3.30;99.90
17423;DHT22;8829;47.932;7.810;2023-11-18T03:26:54;3.40;99.90
17423;DHT22;8829;47.932;7.810;2023-11-18T03:29:20;3.20;99.90
17423;DHT22;8829;47.932;7.810;2023-11-18T03:31:48;3.20;99.90
17423;DHT22;8829;47.932;7.810;2023-11-18T03:34:16;3.20;99.90
17423;DHT22;8829;47.932;7.810;2023-11-18T03:36:45;3.20;99.90
17423;DHT22;8829;47.932;7.810;2023-11-18T03:39:12;3.20;99.90
17423;DHT22;8829;47.932;7.810;2023-11-18T03:41:39;3.30;99.90
17423;DHT22;8829;47.932;7.810;2023-11-18T03:44:06;3.30;99.90
17423;DHT22;8829;47.932;7.810;2023-11-18T03:46:33;3.30;99.90
17423;DHT22;8829;47.932;7.810;2023-11-18T03:49:00;3.30;99.90
17423;DHT22;8829;47.932;7.810;2023-11-18T03:51:28;3.40;99.90
17423;DHT22;8829;47.932;7.810;2023-11-18T03:53:55;3.50;99.90
17423;DHT22;8829;47.932;7.810;2023-11-18T03:56:22;3.50;99.90
17423;DHT22;8829;47.932;7.810;2023-11-18T03:58:49;3.50;99.90
17423;DHT22;8829;47.932;7.810;2023-11-18T04:01:20;3.50;99.90
17423;DHT22;8829;47.932;7.810;2023-11-18T04:03:47;3.50;99.90
17423;DHT22;8829;47.932;7.810;2023-11-18T04:06:13;3.50;99.90
17423;DHT22;8829;47.932;7.810;2023-11-18T04:08:45;3.40;99.90
17423;DHT22;8829;47.932;7.810;2023-11-18T04:11:12;3.30;99.90
17423;DHT22;8829;47.932;7.810;2023-11-18T04:13:39;3.30;99.90
17423;DHT22;8829;47.932;7.810;2023-11-18T04:16:10;3.30;99.90
17423;DHT22;8829;47.932;7.810;2023-11-18T04:18:38;3.30;99.90
17423;DHT22;8829;47.932;7.810;2023-11-18T04:21:06;3.40;99.90
17423;DHT22;8829;47.932;7.810;2023-11-18T04:23:34;3.40;99.90
17423;DHT22;8829;47.932;7.810;2023-11-18T04:26:03;3.20;99.90
17423;DHT22;8829;47.932;7.810;2023-11-18T04:28:30;3.20;99.90
17423;DHT22;8829;47.932;7.810;2023-11-18T04:30:57;3.20;99.90
17423;DHT22;8829;47.932;7.810;2023-11-18T04:33:23;3.20;99.90
17423;DHT22;8829;47.932;7.810;2023-11-18T04:35:51;3.20;99.90
17423;DHT22;8829;47.932;7.810;2023-11-18T04:38:18;3.20;99.90
17423;DHT22;8829;47.932;7.810;2023-11-18T04:40:44;3.40;99.90
17423;DHT22;8829;47.932;7.810;2023-11-18T04:43:13;3.20;99.90
17423;DHT22;8829;47.932;7.810;2023-11-18T04:45:40;3.30;99.90
17423;DHT22;8829;47.932;7.810;2023-11-18T04:48:07;3.40;99.90
17423;DHT22;8829;47.932;7.810;2023-11-18T04:50:34;3.50;99.90
17423;DHT22;8829;47.932;7.810;2023-11-18T04:53:01;3.40;99.90
17423;DHT22;8829;47.932;7.810;2023-11-18T04:55:28;3.40;99.90
17423;DHT22;8829;47.932;7.810;2023-11-18T04:57:55;3.50;99.90
17423;DHT22;8829;47.932;7.810;2023-11-18T05:00:23;3.70;99.90
17423;DHT22;8829;47.932;7.810;2023-11-18T05:02:50;3.70;99.90
17423;DHT22;8829;47.932;7.810;2023-11-18T05:05:17;3.70;99.90
17423;DHT22;8829;47.932;7.810;2023-11-18T05:07:44;3.80;99.90
17423;DHT22;8829;47.932;7.810;2023-11-18T05:10:11;3.80;99.90
17423;DHT22;8829;47.932;7.810;2023-11-18T05:12:38;3.80;99.90
17423;DHT22;8829;47.932;7.810;2023-11-18T05:15:06;3.80;99.90
17423;DHT22;8829;47.932;7.810;2023-11-18T05:17:35;3.90;99.90
17423;DHT22;8829;47.932;7.810;2023-11-18T05:20:02;3.90;99.90
17423;DHT22;8829;47.932;7.810;2023-11-18T05:22:30;4.00;99.90
17423;DHT22;8829;47.932;7.810;2023-11-18T05:24:57;3.90;99.90
17423;DHT22;8829;47.932;7.810;2023-11-18T05:27:24;3.90;99.90
17423;DHT22;8829;47.932;7.810;2023-11-18T05:29:53;3.90;99.90
17423;DHT22;8829;47.932;7.810;2023-11-18T05:32:20;3.80;99.90
17423;DHT22;8829;47.932;7.810;2023-11-18T05:34:50;3.70;99.90
17423;DHT22;8829;47.932;7.810;2023-11-18T05:37:19;3.60;99.90
17423;DHT22;8829;47.932;7.810;2023-11-18T05:39:46;3.60;99.90
17423;DHT22;8829;47.932;7.810;2023-11-18T05:42:14;3.80;99.90
17423;DHT22;8829;47.932;7.810;2023-11-18T05:44:41;3.80;99.90
17423;DHT22;8829;47.932;7.810;2023-11-18T05:47:08;3.90;99.90
17423;DHT22;8829;47.932;7.810;2023-11-18T05:49:37;4.00;99.90
17423;DHT22;8829;47.932;7.810;2023-11-18T05:52:05;4.00;99.90
17423;DHT22;8829;47.932;7.810;2023-11-18T05:54:32;3.90;99.90
17423;DHT22;8829;47.932;7.810;2023-11-18T05:56:59;4.00;99.90
17423;DHT22;8829;47.932;7.810;2023-11-18T05:59:26;4.00;99.90
17423;DHT22;8829;47.932;7.810;2023-11-18T06:01:53;4.00;99.90
17423;DHT22;8829;47.932;7.810;2023-11-18T06:04:22;4.00;99.90
17423;DHT22;8829;47.932;7.810;2023-11-18T06:06:49;3.90;99.90
17423;DHT22;8829;47.932;7.810;2023-11-18T06:09:17;3.80;99.90
17423;DHT22;8829;47.932;7.810;2023-11-18T06:11:46;3.80;99.90
17423;DHT22;8829;47.932;7.810;2023-11-18T06:14:15;3.70;99.90
17423;DHT22;8829;47.932;7.810;2023-11-18T06:16:42;3.90;99.90
17423;DHT22;8829;47.932;7.810;2023-11-18T06:19:09;3.80;99.90
17423;DHT22;8829;47.932;7.810;2023-11-18T06:21:36;3.90;99.90
17423;DHT22;8829;47.932;7.810;2023-11-18T06:24:04;3.80;99.90
17423;DHT22;8829;47.932;7.810;2023-11-18T06:26:32;3.90;99.90
17423;DHT22;8829;47.932;7.810;2023-11-18T06:29:01;3.90;99.90
17423;DHT22;8829;47.932;7.810;2023-11-18T06:31:29;3.80;99.90
17423;DHT22;8829;47.932;7.810;2023-11-18T06:33:57;3.80;99.90
17423;DHT22;8829;47.932;7.810;2023-11-18T06:36:24;3.90;99.90
17423;DHT22;8829;47.932;7.810;2023-11-18T06:38:52;4.00;99.90
17423;DHT22;8829;47.932;7.810;2023-11-18T06:41:21;4.20;99.90
17423;DHT22;8829;47.932;7.810;2023-11-18T06:43:52;4.20;99.90
17423;DHT22;8829;47.932;7.810;2023-11-18T06:46:27;4.30;99.90
17423;DHT22;8829;47.932;7.810;2023-11-18T06:48:57;4.40;99.90
17423;DHT22;8829;47.932;7.810;2023-11-18T06:51:25;4.40;99.90
17423;DHT22;8829;47.932;7.810;2023-11-18T06:53:53;4.30;99.90
17423;DHT22;8829;47.932;7.810;2023-11-18T06:56:20;4.40;99.90
17423;DHT22;8829;47.932;7.810;2023-11-18T06:58:47;4.30;99.90
17423;DHT22;8829;47.932;7.810;2023-11-18T07:01:15;4.40;99.90
17423;DHT22;8829;47.932;7.810;2023-11-18T07:03:43;4.50;99.90
17423;DHT22;8829;47.932;7.810;2023-11-18T07:06:11;4.50;99.90
17423;DHT22;8829;47.932;7.810;2023-11-18T07:08:39;4.50;99.90
17423;DHT22;8829;47.932;7.810;2023-11-18T07:11:06;4.50;99.90
17423;DHT22;8829;47.932;7.810;2023-11-18T07:13:33;4.50;99.90
17423;DHT22;8829;47.932;7.810;2023-11-18T07:16:00;4.60;99.90
17423;DHT22;8829;47.932;7.810;2023-11-18T07:18:30;4.60;99.90
17423;DHT22;8829;47.932;7.810;2023-11-18T07:20:58;4.60;99.90
17423;DHT22;8829;47.932;7.810;2023-11-18T07:23:25;4.60;99.90
17423;DHT22;8829;47.932;7.810;2023-11-18T07:25:51;4.60;99.90
17423;DHT22;8829;47.932;7.810;2023-11-18T07:28:19;4.60;99.90
17423;DHT22;8829;47.932;7.810;2023-11-18T07:30:47;4.80;99.90
17423;DHT22;8829;47.932;7.810;2023-11-18T07:33:14;5.00;99.90
17423;DHT22;8829;47.932;7.810;2023-11-18T07:35:43;5.10;99.90
17423;DHT22;8829;47.932;7.810;2023-11-18T07:38:12;5.10;99.90
17423;DHT22;8829;47.932;7.810;2023-11-18T07:40:39;5.30;99.90
17423;DHT22;8829;47.932;7.810;2023-11-18T07:43:11;5.30;99.90
17423;DHT22;8829;47.932;7.810;2023-11-18T07:45:38;5.30;99.90
17423;DHT22;8829;47.932;7.810;2023-11-18T07:48:06;5.40;99.90
17423;DHT22;8829;47.932;7.810;2023-11-18T07:50:35;5.40;99.90
17423;DHT22;8829;47.932;7.810;2023-11-18T07:53:04;5.50;99.90
17423;DHT22;8829;47.932;7.810;2023-11-18T07:55:32;5.70;99.90
17423;DHT22;8829;47.932;7.810;2023-11-18T07:58:00;5.70;99.90
17423;DHT22;8829;47.932;7.810;2023-11-18T08:00:27;5.70;99.90
17423;DHT22;8829;47.932;7.810;2023-11-18T08:02:56;6.00;99.90
17423;DHT22;8829;47.932;7.810;2023-11-18T08:05:25;5.90;99.90
17423;DHT22;8829;47.932;7.810;2023-11-18T08:07:53;6.10;99.90
17423;DHT22;8829;47.932;7.810;2023-11-18T08:10:21;6.30;99.90
17423;DHT22;8829;47.932;7.810;2023-11-18T08:12:51;6.30;99.90
17423;DHT22;8829;47.932;7.810;2023-11-18T08:15:19;6.30;99.90
17423;DHT22;8829;47.932;7.810;2023-11-18T08:17:46;6.20;99.90
17423;DHT22;8829;47.932;7.810;2023-11-18T08:20:14;6.20;99.90
17423;DHT22;8829;47.932;7.810;2023-11-18T08:22:41;6.30;99.90
17423;DHT22;8829;47.932;7.810;2023-11-18T08:25:09;6.50;99.90
17423;DHT22;8829;47.932;7.810;2023-11-18T08:27:39;6.60;99.90
17423;DHT22;8829;47.932;7.810;2023-11-18T08:30:07;6.50;99.90
17423;DHT22;8829;47.932;7.810;2023-11-18T08:32:37;6.50;99.90
17423;DHT22;8829;47.932;7.810;2023-11-18T08:35:05;6.90;99.90
17423;DHT22;8829;47.932;7.810;2023-11-18T08:37:33;6.90;99.90
17423;DHT22;8829;47.932;7.810;2023-11-18T08:40:01;6.90;99.90
17423;DHT22;8829;47.932;7.810;2023-11-18T08:42:27;6.90;99.90
17423;DHT22;8829;47.932;7.810;2023-11-18T08:44:56;6.90;99.90
17423;DHT22;8829;47.932;7.810;2023-11-18T08:47:24;7.00;99.90
17423;DHT22;8829;47.932;7.810;2023-11-18T08:49:51;7.10;99.90
17423;DHT22;8829;47.932;7.810;2023-11-18T08:52:18;7.30;99.90
17423;DHT22;8829;47.932;7.810;2023-11-18T08:54:44;7.30;99.90
17423;DHT22;8829;47.932;7.810;2023-11-18T08:57:25;7.20;99.90
17423;DHT22;8829;47.932;7.810;2023-11-18T08:59:52;7.30;99.90
17423;DHT22;8829;47.932;7.810;2023-11-18T09:02:20;7.80;99.90
17423;DHT22;8829;47.932;7.810;2023-11-18T09:04:48;7.60;99.90
17423;DHT22;8829;47.932;7.810;2023-11-18T09:07:16;7.60;99.90
17423;DHT22;8829;47.932;7.810;2023-11-18T09:09:44;7.80;99.90
17423;DHT22;8829;47.932;7.810;2023-11-18T09:12:14;8.00;99.90
17423;DHT22;8829;47.932;7.810;2023-11-18T09:14:43;8.10;99.90
17423;DHT22;8829;47.932;7.810;2023-11-18T09:17:13;8.20;99.90
17423;DHT22;8829;47.932;7.810;2023-11-18T09:19:41;8.10;99.90
17423;DHT22;8829;47.932;7.810;2023-11-18T09:22:09;8.20;99.90
17423;DHT22;8829;47.932;7.810;2023-11-18T09:24:38;8.40;99.90
17423;DHT22;8829;47.932;7.810;2023-11-18T09:27:05;8.50;99.90
17423;DHT22;8829;47.932;7.810;2023-11-18T09:29:34;8.60;99.90
17423;DHT22;8829;47.932;7.810;2023-11-18T09:32:02;8.60;99.90
17423;DHT22;8829;47.932;7.810;2023-11-18T09:34:31;8.60;99.90
17423;DHT22;8829;47.932;7.810;2023-11-18T09:37:00;8.70;99.90
17423;DHT22;8829;47.932;7.810;2023-11-18T09:39:26;8.80;99.90
17423;DHT22;8829;47.932;7.810;2023-11-18T09:42:05;8.70;99.90
17423;DHT22;8829;47.932;7.810;2023-11-18T09:44:35;8.60;99.90
17423;DHT22;8829;47.932;7.810;2023-11-18T09:47:07;8.70;99.90
17423;DHT22;8829;47.932;7.810;2023-11-18T09:49:42;8.80;99.90
17423;DHT22;8829;47.932;7.810;2023-11-18T09:52:16;8.70;99.90
17423;DHT22;8829;47.932;7.810;2023-11-18T09:54:50;8.80;99.90
17423;DHT22;8829;47.932;7.810;2023-11-18T09:57:26;8.80;99.90
17423;DHT22;8829;47.932;7.810;2023-11-18T10:00:01;8.80;99.90
17423;DHT22;8829;47.932;7.810;2023-11-18T10:02:39;8.80;99.90
17423;DHT22;8829;47.932;7.810;2023-11-18T10:05:07;8.90;99.90
17423;DHT22;8829;47.932;7.810;2023-11-18T10:07:39;8.90;99.90
17423;DHT22;8829;47.932;7.810;2023-11-18T10:10:07;9.00;99.90
17423;DHT22;8829;47.932;7.810;2023-11-18T10:12:40;9.00;99.90
17423;DHT22;8829;47.932;7.810;2023-11-18T10:15:08;9.00;99.90
17423;DHT22;8829;47.932;7.810;2023-11-18T10:17:37;8.90;99.90
17423;DHT22;8829;47.932;7.810;2023-11-18T10:20:21;8.90;99.90
17423;DHT22;8829;47.932;7.810;2023-11-18T10:23:05;9.00;99.90
17423;DHT22;8829;47.932;7.810;2023-11-18T10:25:35;8.90;99.90
17423;DHT22;8829;47.932;7.810;2023-11-18T10:28:07;8.90;99.90
17423;DHT22;8829;47.932;7.810;2023-11-18T10:30:43;8.80;99.90
17423;DHT22;8829;47.932;7.810;2023-11-18T10:33:14;8.90;99.90
17423;DHT22;8829;47.932;7.810;2023-11-18T10:35:49;8.80;99.90
17423;DHT22;8829;47.932;7.810;2023-11-18T10:38:18;8.80;99.90
17423;DHT22;8829;47.932;7.810;2023-11-18T10:40:46;8.70;99.90
17423;DHT22;8829;47.932;7.810;2023-11-18T10:43:14;8.50;99.90
17423;DHT22;8829;47.932;7.810;2023-11-18T10:45:42;8.20;99.90
17423;DHT22;8829;47.932;7.810;2023-11-18T10:48:12;8.00;99.90
17423;DHT22;8829;47.932;7.810;2023-11-18T10:50:42;8.10;99.90
17423;DHT22;8829;47.932;7.810;2023-11-18T10:53:11;8.10;99.90
17423;DHT22;8829;47.932;7.810;2023-11-18T10:55:43;8.10;99.90
17423;DHT22;8829;47.932;7.810;2023-11-18T10:58:10;8.30;99.90
17423;DHT22;8829;47.932;7.810;2023-11-18T11:00:47;8.40;99.90
17423;DHT22;8829;47.932;7.810;2023-11-18T11:03:15;8.60;99.90
17423;DHT22;8829;47.932;7.810;2023-11-18T11:05:43;8.80;99.90
17423;DHT22;8829;47.932;7.810;2023-11-18T11:08:13;8.80;99.90
17423;DHT22;8829;47.932;7.810;2023-11-18T11:10:43;8.80;99.90
17423;DHT22;8829;47.932;7.810;2023-11-18T11:13:10;8.90;99.90
17423;DHT22;8829;47.932;7.810;2023-11-18T11:15:41;8.90;99.90
17423;DHT22;8829;47.932;7.810;2023-11-18T11:18:20;8.80;99.90
17423;DHT22;8829;47.932;7.810;2023-11-18T11:20:57;8.80;99.90
17423;DHT22;8829;47.932;7.810;2023-11-18T11:23:35;8.70;99.90
17423;DHT22;8829;47.932;7.810;2023-11-18T11:26:18;8.60;99.90
17423;DHT22;8829;47.932;7.810;2023-11-18T11:29:00;8.70;99.90
17423;DHT22;8829;47.932;7.810;2023-11-18T11:31:34;8.60;99.90
17423;DHT22;8829;47.932;7.810;2023-11-18T11:34:06;8.60;99.90
17423;DHT22;8829;47.932;7.810;2023-11-18T11:36:37;8.60;99.90
17423;DHT22;8829;47.932;7.810;2023-11-18T11:39:08;8.60;99.90
17423;DHT22;8829;47.932;7.810;2023-11-18T11:41:44;8.70;99.90
17423;DHT22;8829;47.932;7.810;2023-11-18T11:44:13;8.60;99.90
17423;DHT22;8829;47.932;7.810;2023-11-18T11:46:40;8.70;99.90
17423;DHT22;8829;47.932;7.810;2023-11-18T11:49:09;8.70;99.90
17423;DHT22;8829;47.932;7.810;2023-11-18T11:51:48;8.60;99.90
17423;DHT22;8829;47.932;7.810;2023-11-18T11:54:19;8.50;99.90
17423;DHT22;8829;47.932;7.810;2023-11-18T11:56:50;8.50;99.90
17423;DHT22;8829;47.932;7.810;2023-11-18T11:59:35;8.60;99.90
17423;DHT22;8829;47.932;7.810;2023-11-18T12:02:04;8.50;99.90
17423;DHT22;8829;47.932;7.810;2023-11-18T12:04:34;8.60;99.90
17423;DHT22;8829;47.932;7.810;2023-11-18T12:07:05;8.60;99.90
17423;DHT22;8829;47.932;7.810;2023-11-18T12:09:31;8.60;99.90
17423;DHT22;8829;47.932;7.810;2023-11-18T12:12:13;8.50;99.90
17423;DHT22;8829;47.932;7.810;2023-11-18T12:14:51;8.30;99.90
17423;DHT22;8829;47.932;7.810;2023-11-18T12:17:21;8.30;99.90
17423;DHT22;8829;47.932;7.810;2023-11-18T12:19:50;8.30;99.90
17423;DHT22;8829;47.932;7.810;2023-11-18T12:22:24;8.30;99.90
17423;DHT22;8829;47.932;7.810;2023-11-18T12:28:10;8.30;99.90
17423;DHT22;8829;47.932;7.810;2023-11-18T12:30:41;8.30;99.90
17423;DHT22;8829;47.932;7.810;2023-11-18T12:33:18;8.20;99.90
17423;DHT22;8829;47.932;7.810;2023-11-18T12:36:15;8.10;99.90
17423;DHT22;8829;47.932;7.810;2023-11-18T12:39:10;8.20;99.90
17423;DHT22;8829;47.932;7.810;2023-11-18T12:41:41;8.20;99.90
17423;DHT22;8829;47.932;7.810;2023-11-18T12:44:15;8.30;99.90
17423;DHT22;8829;47.932;7.810;2023-11-18T12:46:51;8.30;99.90
17423;DHT22;8829;47.932;7.810;2023-11-18T12:49:23;8.20;99.90
17423;DHT22;8829;47.932;7.810;2023-11-18T12:51:50;8.30;99.90
17423;DHT22;8829;47.932;7.810;2023-11-18T12:54:19;8.30;99.90
17423;DHT22;8829;47.932;7.810;2023-11-18T12:56:46;8.30;99.90
17423;DHT22;8829;47.932;7.810;2023-11-18T12:59:16;8.40;99.90
17423;DHT22;8829;47.932;7.810;2023-11-18T13:01:44;8.50;99.90
17423;DHT22;8829;47.932;7.810;2023-11-18T13:04:17;8.50;99.90
17423;DHT22;8829;47.932;7.810;2023-11-18T13:06:45;8.60;99.90
17423;DHT22;8829;47.932;7.810;2023-11-18T13:09:13;8.70;99.90
17423;DHT22;8829;47.932;7.810;2023-11-18T13:11:52;8.70;99.90
17423;DHT22;8829;47.932;7.810;2023-11-18T13:14:23;8.80;99.90
17423;DHT22;8829;47.932;7.810;2023-11-18T13:16:52;8.80;99.90
17423;DHT22;8829;47.932;7.810;2023-11-18T13:19:25;8.90;99.90
17423;DHT22;8829;47.932;7.810;2023-11-18T13:21:57;9.00;99.90
17423;DHT22;8829;47.932;7.810;2023-11-18T13:24:25;9.00;99.90
17423;DHT22;8829;47.932;7.810;2023-11-18T13:26:54;9.00;99.90
17423;DHT22;8829;47.932;7.810;2023-11-18T13:29:24;9.10;99.90
17423;DHT22;8829;47.932;7.810;2023-11-18T13:31:51;9.10;99.90
17423;DHT22;8829;47.932;7.810;2023-11-18T13:34:18;9.10;99.90
17423;DHT22;8829;47.932;7.810;2023-11-18T13:36:46;9.10;99.90
17423;DHT22;8829;47.932;7.810;2023-11-18T13:39:16;9.20;99.90
17423;DHT22;8829;47.932;7.810;2023-11-18T13:41:43;9.20;99.90
17423;DHT22;8829;47.932;7.810;2023-11-18T13:44:11;9.20;99.90
17423;DHT22;8829;47.932;7.810;2023-11-18T13:46:40;9.20;99.90
17423;DHT22;8829;47.932;7.810;2023-11-18T13:49:08;9.20;99.90
17423;DHT22;8829;47.932;7.810;2023-11-18T13:51:34;9.20;99.90
17423;DHT22;8829;47.932;7.810;2023-11-18T13:54:02;9.20;99.90
17423;DHT22;8829;47.932;7.810;2023-11-18T13:56:30;9.30;99.90
17423;DHT22;8829;47.932;7.810;2023-11-18T13:58:57;9.20;99.90
17423;DHT22;8829;47.932;7.810;2023-11-18T14:01:25;9.20;99.90
17423;DHT22;8829;47.932;7.810;2023-11-18T14:03:54;9.20;99.90
17423;DHT22;8829;47.932;7.810;2023-11-18T14:06:27;9.20;99.90
17423;DHT22;8829;47.932;7.810;2023-11-18T14:08:54;9.20;99.90
17423;DHT22;8829;47.932;7.810;2023-11-18T14:11:21;9.20;99.90
17423;DHT22;8829;47.932;7.810;2023-11-18T14:13:48;9.20;99.90
17423;DHT22;8829;47.932;7.810;2023-11-18T14:16:14;9.20;99.90
17423;DHT22;8829;47.932;7.810;2023-11-18T14:18:42;9.30;99.90
17423;DHT22;8829;47.932;7.810;2023-11-18T14:21:10;9.20;99.90
17423;DHT22;8829;47.932;7.810;2023-11-18T14:23:39;9.30;99.90
17423;DHT22;8829;47.932;7.810;2023-11-18T14:26:07;9.30;99.90
17423;DHT22;8829;47.932;7.810;2023-11-18T14:28:34;9.30;99.90
17423;DHT22;8829;47.932;7.810;2023-11-18T14:31:01;9.20;99.90
17423;DHT22;8829;47.932;7.810;2023-11-18T14:33:29;9.20;99.90
17423;DHT22;8829;47.932;7.810;2023-11-18T14:35:58;9.10;99.90
17423;DHT22;8829;47.932;7.810;2023-11-18T14:38:27;9.10;99.90
17423;DHT22;8829;47.932;7.810;2023-11-18T14:40:54;9.10;99.90
17423;DHT22;8829;47.932;7.810;2023-11-18T14:43:21;9.10;99.90
17423;DHT22;8829;47.932;7.810;2023-11-18T14:45:48;9.00;99.90
17423;DHT22;8829;47.932;7.810;2023-11-18T14:48:17;9.00;99.90
17423;DHT22;8829;47.932;7.810;2023-11-18T14:50:43;9.10;99.90
17423;DHT22;8829;47.932;7.810;2023-11-18T14:53:10;9.10;99.90
17423;DHT22;8829;47.932;7.810;2023-11-18T14:55:38;9.10;99.90
17423;DHT22;8829;47.932;7.810;2023-11-18T14:58:05;9.10;99.90
17423;DHT22;8829;47.932;7.810;2023-11-18T15:00:32;9.10;99.90
17423;DHT22;8829;47.932;7.810;2023-11-18T15:03:00;9.10;99.90
17423;DHT22;8829;47.932;7.810;2023-11-18T15:05:26;9.10;99.90
17423;DHT22;8829;47.932;7.810;2023-11-18T15:07:54;9.00;99.90
17423;DHT22;8829;47.932;7.810;2023-11-18T15:10:22;9.00;99.90
17423;DHT22;8829;47.932;7.810;2023-11-18T15:12:51;8.90;99.90
17423;DHT22;8829;47.932;7.810;2023-11-18T15:15:20;9.00;99.90
17423;DHT22;8829;47.932;7.810;2023-11-18T15:17:47;8.80;99.90
17423;DHT22;8829;47.932;7.810;2023-11-18T15:20:15;8.80;99.90
17423;DHT22;8829;47.932;7.810;2023-11-18T15:22:44;8.80;99.90
17423;DHT22;8829;47.932;7.810;2023-11-18T15:25:11;8.70;99.90
17423;DHT22;8829;47.932;7.810;2023-11-18T15:27:42;8.70;99.90
17423;DHT22;8829;47.932;7.810;2023-11-18T15:30:13;8.60;99.90
17423;DHT22;8829;47.932;7.810;2023-11-18T15:32:41;8.50;99.90
17423;DHT22;8829;47.932;7.810;2023-11-18T15:35:08;8.50;99.90
17423;DHT22;8829;47.932;7.810;2023-11-18T15:37:36;8.40;99.90
17423;DHT22;8829;47.932;7.810;2023-11-18T15:40:05;8.50;99.90
17423;DHT22;8829;47.932;7.810;2023-11-18T15:42:36;8.50;99.90
17423;DHT22;8829;47.932;7.810;2023-11-18T15:45:07;8.50;99.90
17423;DHT22;8829;47.932;7.810;2023-11-18T15:47:36;8.50;99.90
17423;DHT22;8829;47.932;7.810;2023-11-18T15:50:05;8.60;99.90
17423;DHT22;8829;47.932;7.810;2023-11-18T15:52:32;8.60;99.90
17423;DHT22;8829;47.932;7.810;2023-11-18T15:55:01;8.70;99.90
17423;DHT22;8829;47.932;7.810;2023-11-18T15:57:36;8.70;99.90
17423;DHT22;8829;47.932;7.810;2023-11-18T16:00:04;8.70;99.90
17423;DHT22;8829;47.932;7.810;2023-11-18T16:02:32;8.80;99.90
17423;DHT22;8829;47.932;7.810;2023-11-18T16:05:00;8.80;99.90
17423;DHT22;8829;47.932;7.810;2023-11-18T16:07:28;8.80;99.90
17423;DHT22;8829;47.932;7.810;2023-11-18T16:09:55;8.80;99.90
17423;DHT22;8829;47.932;7.810;2023-11-18T16:12:23;8.80;99.90
17423;DHT22;8829;47.932;7.810;2023-11-18T16:14:50;8.80;99.90
17423;DHT22;8829;47.932;7.810;2023-11-18T16:17:17;8.90;99.90